• Join FlightAware (Why Join?)
  • Login
  • US Flag 
08:25AM EDT


 

Airport Tracker/Info


-or-


 

Live Flight TrackerFlight Track Log ✈ PDT4155 ✈ 06-Oct-2013 ✈ KBGM - KPHL

Flight Track Log - Related Links

Times and Time Zones

All times are in EDT time to prevent confusion due to time zone crossing. See the PDT4155 flight status page for this flight to view local times or setup timezone preferences in your user account.

Time Position Orientation Groundspeed Altitude Reporting Facility
EDT Latitude Longitude Course Direction KTS MPH feet Rate Location/Type
07:14AM 42.0427 -75.9254 180° South  Level Estimated
07:15AM 41.9859 -75.9269 181° South  Level FlightAware Approximate
07:16AM 41.9291 -75.9285 181° South  Level FlightAware Approximate
07:17AM 41.8722 -75.9300 181° South  Level FlightAware Approximate
07:18AM 41.8173 -75.9105 154° Southeast  Level Estimated
07:19AM 41.7623 -75.8910 160° South  Level Estimated
07:20AM 41.7074 -75.8716 159° South  Level Estimated
07:21AM 41.6523 -75.8525 166° South  Level FlightAware Approximate
07:22AM 41.5973 -75.8335 166° South  Level FlightAware Approximate
07:23AM 41.5423 -75.8141 153° Southeast  Level Estimated
07:24AM 41.4874 -75.7948 161° South  Level Estimated
07:25AM 41.4342 -75.7679 159° South  Level FlightAware Approximate
07:26AM 41.3811 -75.7410 159° South  Level FlightAware Approximate
07:27AM 41.3260 -75.7223 162° South  Level Estimated
07:28AM 41.2725 -75.6967 160° South  Level FlightAware Approximate
07:29AM 41.2190 -75.6711 160° South  Level FlightAware Approximate
07:30AM 41.1655 -75.6455 160° South  Level FlightAware Approximate
07:31AM 41.1120 -75.6200 160° South  Level FlightAware Approximate
07:32AM 41.0567 -75.6027 159° South  Level Estimated
07:33AM 41.0013 -75.5855 163° South  Level Estimated
07:34AM 40.9479 -75.5600 160° South  Level FlightAware Approximate
07:35AM 40.8944 -75.5345 160° South  Level FlightAware Approximate
07:36AM 40.8409 -75.5090 160° South  Level FlightAware Approximate
07:37AM 40.7853 -75.4934 190° South  Level Estimated
07:38AM 40.7285 -75.4947 181° South  Level FlightAware Approximate
07:38AM 40.6667 -75.4667 198° South 226 260 8,000  Level Philadelphia TRACON
07:39AM 40.6716 -75.4960 181° South  Level FlightAware Approximate
07:40AM 40.6148 -75.4974 181° South  Level FlightAware Approximate
07:40AM 40.5833 -75.4833 189° South 242 278 7,000  Level Philadelphia TRACON
07:41AM 40.5611 -75.4786 187° South  Level Estimated
07:41AM 40.5167 -75.5000 191° South 237 273 7,000  Level Philadelphia TRACON
07:42AM 40.4979 -75.4935 190° South  Level FlightAware Approximate
07:42AM 40.4500 -75.5167 191° South 226 260 7,000  Level Philadelphia TRACON
07:42AM 40.4000 -75.5167 180° South 223 257 7,000  Level Philadelphia TRACON
07:43AM 40.4367 -75.4686 190° South  Level Estimated
07:43AM 40.3333 -75.5167 180° South 224 258 7,000  Level Philadelphia TRACON
07:44AM 40.3758 -75.4952 198° South  Level FlightAware Approximate
07:44AM 40.2667 -75.5333 191° South 224 258 7,000  Level Philadelphia TRACON
07:45AM 40.2167 -75.5333 180° South 223 257 7,000 -120 Level Philadelphia TRACON
07:46AM 40.1500 -75.5500 191° South 222 255 6,800 -540 Descending Philadelphia TRACON
07:47AM 40.0833 -75.5500 180° South 242 278 6,000 -420 Descending Philadelphia TRACON
07:48AM 40.0333 -75.5667 194° South 224 258 6,000 -360 Level Philadelphia TRACON
07:49AM 39.9667 -75.5500 169° South 230 265 5,300 -1,140 Descending Philadelphia TRACON
07:50AM 39.9000 -75.5167 159° South 236 272 3,800 -1,440 Descending Philadelphia TRACON
07:51AM 39.8333 -75.5000 169° South 202 232 2,400 -900 Descending Philadelphia TRACON
07:52AM 39.8333 -75.4333 90° East 211 243 2,000 -600 Descending Philadelphia TRACON
07:53AM 39.8500 -75.3667 72° East 194 223 1,300 -780 Descending Philadelphia TRACON
07:54AM 39.8500 -75.3167 90° East 127 146 600 -780 Descending Philadelphia TRACON